Merit, Texas
Current Conditions -  °F | °C
As of 6:15 PM on Sunday 23 Nov 2014 (Local Time) from KGVT Reporting Station
Clear Clear  
Wind Chill: 64°   Ceiling: Unl
Heat Index: 64°   Visibility: 10mi
Dew Point: 43°   Wind: 21mph
Humidity: 45%   Direction: 280°W
Pressure: 29.53"   Gusts: 25mph
Location:  33.22°N, 96.29°W
Report Text: KGVT 240015Z AUTO 28018G22KT 10SM CLR 18/06 A2953 RMK AO2
Loading
Personal Weather Stations






























Interactive Weather Map New forecast layout! Learn more

10-Day Weather Forecast

Advertisements
Track Severe Weather on mobile